Time;durP1;ratioP1;P1;durP2;ratioP2;P2;SDS_P1;SDS_P2;PMS_P1;PMS_P2;Temp;Humidity;BMP_temperature;BMP_pressure;BME280_temperature;BME280_humidity;BME280_pressure;Samples;Min_cycle;Max_cycle;Signal;HPM_P1;HPM_P2
2021/06/27 00:02:23;;;;;;;53.05;34.83;;;17.60;91.90;;;;;;5021402;28;20050;-49
2021/06/27 00:04:49;;;;;;;55.97;35.17;;;17.60;91.60;;;;;;4999550;28;20061;-49
2021/06/27 00:07:15;;;;;;;57.03;36.53;;;17.60;91.70;;;;;;4998792;28;20038;-48
2021/06/27 00:09:41;;;;;;;57.03;36.67;;;17.50;91.80;;;;;;5017079;28;20026;-48
2021/06/27 00:12:09;;;;;;;59.67;36.30;;;17.40;91.80;;;;;;4999508;28;20140;-48
2021/06/27 00:14:35;;;;;;;56.05;34.70;;;17.40;92.10;;;;;;5016922;28;20108;-48
2021/06/27 00:17:01;;;;;;;59.33;37.42;;;17.40;92.00;;;;;;4979593;28;20418;-47
2021/06/27 00:19:27;;;;;;;54.83;36.70;;;17.40;91.70;;;;;;5014981;28;20049;-50
2021/06/27 00:21:53;;;;;;;57.05;36.30;;;17.40;91.70;;;;;;4999826;28;20060;-48
2021/06/27 00:24:18;;;;;;;57.78;37.13;;;17.40;91.70;;;;;;5014800;28;20133;-48
2021/06/27 00:26:46;;;;;;;65.00;36.75;;;17.40;91.70;;;;;;5013988;28;20037;-50
2021/06/27 00:29:12;;;;;;;61.17;38.00;;;17.30;91.80;;;;;;5015478;28;20041;-49
2021/06/27 00:31:38;;;;;;;61.80;36.25;;;17.30;91.80;;;;;;5017253;28;20128;-49
2021/06/27 00:34:04;;;;;;;56.58;37.38;;;17.20;92.00;;;;;;5015622;28;20043;-49
2021/06/27 00:36:30;;;;;;;59.58;37.40;;;17.10;92.10;;;;;;5011751;28;20376;-49
2021/06/27 00:38:56;;;;;;;59.00;38.28;;;17.10;92.10;;;;;;5013870;28;20045;-49
2021/06/27 00:41:21;;;;;;;62.17;38.67;;;17.10;92.10;;;;;;5015401;28;20038;-50
2021/06/27 00:43:50;;;;;;;58.22;37.42;;;17.00;92.20;;;;;;5016023;28;20418;-49
2021/06/27 00:46:16;;;;;;;60.78;38.60;;;17.00;92.20;;;;;;5012778;28;20030;-51
2021/06/27 00:48:41;;;;;;;60.22;38.13;;;17.00;92.00;;;;;;5012072;28;20384;-53
2021/06/27 00:51:08;;;;;;;63.50;38.95;;;17.00;92.00;;;;;;5011452;28;20065;-51
2021/06/27 00:53:34;;;;;;;63.28;38.85;;;16.90;92.30;;;;;;5009617;28;20042;-52
2021/06/27 00:56:00;;;;;;;62.58;38.88;;;16.90;92.10;;;;;;5016235;28;20057;-51
2021/06/27 00:58:34;;;;;;;66.78;40.33;;;16.90;92.30;;;;;;4979781;28;20050;-52
2021/06/27 01:01:01;;;;;;;60.65;39.30;;;16.90;92.20;;;;;;5006614;28;20088;-53
2021/06/27 01:03:26;;;;;;;64.05;39.55;;;16.90;92.20;;;;;;4994599;28;20104;-52
2021/06/27 01:05:53;;;;;;;61.92;40.17;;;16.80;92.10;;;;;;5012256;28;20042;-52
2021/06/27 01:08:19;;;;;;;67.03;40.92;;;16.80;92.30;;;;;;5012522;28;20044;-52
2021/06/27 01:10:47;;;;;;;67.60;40.20;;;16.80;92.30;;;;;;5012396;28;20073;-49
2021/06/27 01:13:17;;;;;;;59.08;36.63;;;16.80;92.20;;;;;;5012262;28;20554;-50
2021/06/27 01:15:44;;;;;;;62.50;39.67;;;16.80;92.10;;;;;;5012438;28;20128;-51
2021/06/27 01:18:10;;;;;;;67.45;38.83;;;16.80;92.10;;;;;;4994743;28;20072;-52
2021/06/27 01:20:37;;;;;;;66.13;39.63;;;16.70;92.30;;;;;;5015877;28;20057;-52
2021/06/27 01:23:08;;;;;;;62.50;41.25;;;16.70;92.40;;;;;;4995142;28;20038;-52
2021/06/27 01:25:36;;;;;;;63.72;40.13;;;16.60;92.40;;;;;;5012759;28;20068;-50
2021/06/27 01:28:03;;;;;;;69.10;40.90;;;16.70;92.30;;;;;;5004164;28;20100;-51
2021/06/27 01:30:30;;;;;;;63.88;41.33;;;16.60;92.40;;;;;;5012829;28;20042;-52
2021/06/27 01:32:59;;;;;;;65.97;39.22;;;16.50;92.60;;;;;;5002046;28;20084;-53
2021/06/27 01:35:27;;;;;;;68.60;40.35;;;16.50;92.70;;;;;;5010902;28;20128;-49
2021/06/27 01:37:54;;;;;;;66.30;40.53;;;16.50;92.60;;;;;;4994906;28;20045;-52
2021/06/27 01:40:25;;;;;;;64.03;40.22;;;16.40;92.70;;;;;;5010648;28;20064;-50
2021/06/27 01:42:53;;;;;;;65.95;40.22;;;16.40;92.90;;;;;;5016757;28;20125;-49
2021/06/27 01:45:20;;;;;;;63.33;38.22;;;16.40;92.50;;;;;;5020048;28;20533;-49
2021/06/27 01:48:03;;;;;;;64.38;39.95;;;16.30;92.80;;;;;;5008762;28;20560;-50
2021/06/27 01:50:30;;;;;;;65.07;39.38;;;16.30;93.10;;;;;;5011314;28;20387;-49
2021/06/27 01:52:58;;;;;;;62.40;39.08;;;16.30;93.20;;;;;;5010188;28;20042;-53
2021/06/27 01:55:25;;;;;;;64.18;39.53;;;16.30;92.90;;;;;;5014731;28;20042;-50
2021/06/27 01:57:52;;;;;;;65.05;40.97;;;16.20;93.00;;;;;;5012032;28;20521;-49
2021/06/27 02:00:19;;;;;;;65.00;39.50;;;16.20;93.10;;;;;;5012163;28;20084;-50
2021/06/27 02:02:45;;;;;;;65.63;39.70;;;16.20;93.20;;;;;;4994623;28;20034;-49
2021/06/27 02:05:12;;;;;;;63.92;39.85;;;16.20;92.90;;;;;;5016447;28;20091;-52
2021/06/27 02:07:38;;;;;;;61.20;39.53;;;16.20;93.00;;;;;;5014738;28;20053;-49
2021/06/27 02:10:26;;;;;;;69.68;39.83;;;16.20;92.90;;;;;;5014728;28;20042;-52
2021/06/27 02:12:54;;;;;;;69.30;39.55;;;16.10;93.00;;;;;;5012566;28;20471;-49
2021/06/27 02:15:20;;;;;;;65.82;38.10;;;16.10;93.20;;;;;;4994203;28;20121;-49
2021/06/27 02:17:52;;;;;;;65.05;39.05;;;16.10;93.00;;;;;;5013822;28;20105;-48
2021/06/27 02:20:19;;;;;;;65.00;39.40;;;16.20;92.80;;;;;;4997549;28;20045;-49
2021/06/27 02:22:45;;;;;;;70.38;40.28;;;16.20;93.10;;;;;;4995640;28;20037;-50
2021/06/27 02:25:12;;;;;;;70.32;40.15;;;16.10;93.10;;;;;;5012829;28;20037;-49
2021/06/27 02:27:38;;;;;;;70.15;38.58;;;16.00;93.20;;;;;;5012922;28;20057;-49
2021/06/27 02:30:10;;;;;;;70.47;38.97;;;16.00;93.30;;;;;;5011739;28;20160;-49
2021/06/27 02:32:36;;;;;;;68.43;39.22;;;16.10;93.30;;;;;;5012834;28;20038;-49
2021/06/27 02:35:04;;;;;;;72.35;38.65;;;16.00;93.30;;;;;;5013709;28;20045;-52
2021/06/27 02:37:30;;;;;;;62.90;37.50;;;15.90;93.60;;;;;;5012526;28;20041;-49
2021/06/27 02:39:56;;;;;;;68.35;38.80;;;15.90;93.70;;;;;;5011956;28;20044;-48
2021/06/27 02:42:22;;;;;;;68.25;39.35;;;15.90;93.60;;;;;;5014961;28;20042;-50
2021/06/27 02:44:48;;;;;;;76.63;39.28;;;15.90;93.50;;;;;;5014638;28;20098;-49
2021/06/27 02:47:16;;;;;;;66.28;38.35;;;15.80;93.70;;;;;;4981490;28;20065;-49
2021/06/27 02:49:43;;;;;;;69.03;37.65;;;15.80;93.90;;;;;;5012281;28;20042;-50
2021/06/27 02:52:09;;;;;;;63.25;36.95;;;15.80;94.00;;;;;;4995054;28;20129;-49
2021/06/27 02:54:35;;;;;;;69.82;38.55;;;15.80;94.00;;;;;;5014226;28;20359;-49
2021/06/27 02:57:01;;;;;;;67.45;37.67;;;15.80;93.90;;;;;;5015319;28;20037;-49
2021/06/27 02:59:27;;;;;;;64.47;36.90;;;15.80;93.90;;;;;;4997540;28;20113;-48
2021/06/27 03:01:53;;;;;;;68.55;35.92;;;15.70;94.00;;;;;;5013617;28;20044;-51
2021/06/27 03:04:20;;;;;;;65.97;36.10;;;15.70;94.10;;;;;;5013081;28;20057;-50
2021/06/27 03:06:46;;;;;;;64.72;35.80;;;15.70;94.10;;;;;;5014701;28;20509;-47
2021/06/27 03:09:12;;;;;;;62.60;34.83;;;15.70;94.20;;;;;;5016285;28;20038;-50
2021/06/27 03:11:38;;;;;;;61.75;36.45;;;15.70;94.10;;;;;;5015882;28;20415;-47
2021/06/27 03:14:04;;;;;;;63.85;35.35;;;15.70;94.20;;;;;;5016287;28;20426;-48
2021/06/27 03:16:31;;;;;;;65.82;36.13;;;15.60;94.30;;;;;;5017209;28;20042;-48
2021/06/27 03:18:57;;;;;;;64.72;35.47;;;15.50;94.30;;;;;;4986331;28;20422;-47
2021/06/27 03:21:24;;;;;;;63.85;34.63;;;15.50;94.50;;;;;;4998760;28;20128;-49
2021/06/27 03:23:51;;;;;;;68.85;35.75;;;15.60;94.20;;;;;;4986045;28;20058;-48
2021/06/27 03:26:17;;;;;;;63.72;36.50;;;15.50;94.40;;;;;;5010833;28;20054;-47
2021/06/27 03:28:46;;;;;;;71.70;36.63;;;15.60;94.20;;;;;;5016029;28;20471;-48
2021/06/27 03:31:13;;;;;;;70.28;35.92;;;15.50;94.50;;;;;;5003635;28;20042;-48
2021/06/27 03:33:39;;;;;;;69.50;36.78;;;15.50;94.40;;;;;;5015776;28;20405;-52
2021/06/27 03:36:05;;;;;;;70.40;37.33;;;15.50;94.40;;;;;;5016743;28;20081;-50
2021/06/27 03:38:45;;;;;;;65.07;37.67;;;15.50;94.30;;;;;;5015826;28;20081;-48
2021/06/27 03:41:12;;;;;;;76.35;41.05;;;15.50;94.60;;;;;;5015303;28;20041;-49
2021/06/27 03:43:39;;;;;;;88.68;44.60;;;15.50;94.40;;;;;;5015418;28;20091;-48
2021/06/27 03:46:05;;;;;;;81.50;42.95;;;15.50;94.40;;;;;;4963951;28;20491;-49
2021/06/27 03:48:30;;;;;;;86.07;45.83;;;15.50;94.60;;;;;;5012532;28;20076;-50
2021/06/27 03:50:56;;;;;;;80.88;44.47;;;15.50;94.50;;;;;;5014958;28;20571;-48
2021/06/27 03:53:22;;;;;;;86.20;45.67;;;15.40;94.70;;;;;;5015305;28;20112;-47
2021/06/27 03:55:49;;;;;;;83.57;44.85;;;15.40;94.90;;;;;;5015505;28;20046;-50
2021/06/27 03:58:14;;;;;;;81.95;43.78;;;15.40;94.70;;;;;;5015978;28;20092;-48
2021/06/27 04:00:40;;;;;;;85.65;44.38;;;15.40;94.90;;;;;;5015045;28;20034;-48
2021/06/27 04:03:06;;;;;;;86.55;44.85;;;15.40;95.00;;;;;;5015954;28;20045;-48
2021/06/27 04:05:32;;;;;;;78.32;42.05;;;15.40;94.80;;;;;;4988270;28;20046;-48
2021/06/27 04:07:58;;;;;;;86.13;43.33;;;15.50;94.90;;;;;;5015089;28;20564;-47
2021/06/27 04:10:24;;;;;;;77.82;41.83;;;15.40;94.80;;;;;;5015149;28;20058;-48
2021/06/27 04:12:50;;;;;;;86.22;43.83;;;15.50;95.00;;;;;;5015330;28;20038;-48
2021/06/27 04:15:16;;;;;;;79.45;41.05;;;15.50;94.80;;;;;;5005449;28;20050;-48
2021/06/27 04:17:42;;;;;;;77.50;40.28;;;15.40;95.10;;;;;;5009094;28;20453;-48
2021/06/27 04:20:09;;;;;;;68.15;38.53;;;15.50;95.00;;;;;;5015054;28;20072;-48
2021/06/27 04:22:36;;;;;;;72.88;38.15;;;15.40;95.10;;;;;;5014969;28;20073;-48
2021/06/27 04:25:02;;;;;;;69.32;38.35;;;15.50;95.10;;;;;;4996963;28;20045;-52
2021/06/27 04:27:29;;;;;;;62.25;35.42;;;15.50;95.00;;;;;;5014328;28;20494;-51
2021/06/27 04:29:54;;;;;;;70.82;35.53;;;15.50;95.00;;;;;;5014492;28;20093;-52
2021/06/27 04:32:20;;;;;;;62.72;34.72;;;15.50;95.20;;;;;;5014373;28;20042;-49
2021/06/27 04:34:46;;;;;;;64.88;34.05;;;15.50;95.10;;;;;;5014378;28;20049;-51
2021/06/27 04:37:11;;;;;;;64.88;34.55;;;15.60;95.00;;;;;;5014895;28;20049;-50
2021/06/27 04:39:38;;;;;;;57.65;30.77;;;15.50;95.00;;;;;;5014972;28;20284;-51
2021/06/27 04:42:04;;;;;;;59.63;31.52;;;15.60;95.20;;;;;;4998945;28;20042;-48
2021/06/27 04:44:30;;;;;;;64.63;30.85;;;15.60;95.10;;;;;;5013541;28;20093;-52
2021/06/27 04:46:56;;;;;;;58.22;30.48;;;15.70;94.90;;;;;;5013033;28;20046;-50
2021/06/27 04:49:21;;;;;;;67.13;31.58;;;15.70;95.00;;;;;;5014437;28;20070;-49
2021/06/27 04:51:47;;;;;;;61.50;30.38;;;15.60;95.10;;;;;;5013284;28;20398;-48
2021/06/27 04:54:13;;;;;;;58.72;29.17;;;15.60;95.30;;;;;;5012198;28;20042;-52
2021/06/27 04:56:39;;;;;;;55.13;29.38;;;15.70;95.30;;;;;;5011636;28;20050;-49
2021/06/27 04:59:04;;;;;;;64.50;29.77;;;15.70;95.40;;;;;;5015790;28;20078;-49
2021/06/27 05:01:30;;;;;;;63.13;30.75;;;15.80;95.20;;;;;;5013987;28;20038;-51
2021/06/27 05:03:56;;;;;;;58.03;29.27;;;15.80;95.30;;;;;;5013622;28;20042;-50
2021/06/27 05:06:22;;;;;;;60.83;29.58;;;15.80;95.20;;;;;;4995521;28;20058;-48
2021/06/27 05:08:47;;;;;;;58.42;29.98;;;15.90;95.40;;;;;;5013239;28;20100;-50
2021/06/27 05:11:13;;;;;;;58.50;29.27;;;16.00;95.10;;;;;;5013072;28;20044;-50
2021/06/27 05:13:38;;;;;;;50.65;28.52;;;16.00;95.10;;;;;;5005907;28;20125;-50
2021/06/27 05:16:04;;;;;;;51.60;27.85;;;16.00;95.10;;;;;;5012752;28;20088;-52
2021/06/27 05:18:30;;;;;;;56.28;29.73;;;16.10;95.20;;;;;;5013181;28;20447;-48
2021/06/27 05:20:55;;;;;;;59.15;30.70;;;16.20;95.00;;;;;;5013430;28;20037;-51
2021/06/27 05:23:21;;;;;;;58.17;29.58;;;16.20;94.90;;;;;;5012712;28;20087;-52
2021/06/27 05:25:47;;;;;;;53.65;28.85;;;16.20;95.00;;;;;;5012568;28;20034;-53
2021/06/27 05:28:12;;;;;;;55.08;28.02;;;16.20;94.80;;;;;;5012953;28;20057;-51
2021/06/27 05:30:39;;;;;;;56.80;30.02;;;16.40;94.80;;;;;;5012965;28;20132;-48
2021/06/27 05:33:05;;;;;;;61.72;29.73;;;16.30;94.80;;;;;;5011904;28;20486;-50
2021/06/27 05:35:30;;;;;;;55.78;29.42;;;16.30;95.10;;;;;;5012677;28;20061;-48
2021/06/27 05:37:56;;;;;;;54.45;29.02;;;16.40;94.80;;;;;;5012257;28;20114;-51
2021/06/27 05:40:22;;;;;;;55.15;29.20;;;16.40;95.10;;;;;;5012410;28;20049;-52
2021/06/27 05:42:48;;;;;;;54.58;29.58;;;16.50;94.80;;;;;;5012678;28;20042;-51
2021/06/27 05:45:14;;;;;;;54.63;29.25;;;16.60;94.70;;;;;;5011994;28;20498;-50
2021/06/27 05:47:40;;;;;;;48.40;27.33;;;16.60;94.60;;;;;;5012520;28;20052;-50
2021/06/27 05:50:06;;;;;;;52.80;28.92;;;16.80;94.20;;;;;;5012638;28;20487;-52
2021/06/27 05:52:32;;;;;;;49.92;28.85;;;16.80;94.00;;;;;;5011979;28;20092;-48
2021/06/27 05:54:58;;;;;;;49.60;28.77;;;16.90;93.90;;;;;;5011945;28;20049;-51
2021/06/27 05:57:24;;;;;;;45.67;27.25;;;16.90;94.10;;;;;;5011913;28;20045;-51
2021/06/27 05:59:50;;;;;;;47.88;28.73;;;17.10;93.80;;;;;;5012349;28;20042;-51
2021/06/27 06:02:15;;;;;;;51.38;27.58;;;17.10;93.50;;;;;;5012328;28;20073;-53
2021/06/27 06:04:41;;;;;;;44.35;26.67;;;17.20;93.80;;;;;;5012366;28;20045;-49
2021/06/27 06:07:07;;;;;;;49.35;27.67;;;17.30;93.20;;;;;;5019055;28;20108;-51
2021/06/27 06:09:33;;;;;;;46.00;28.35;;;17.30;93.10;;;;;;5025861;28;20112;-52
2021/06/27 06:11:58;;;;;;;48.10;29.45;;;17.30;93.10;;;;;;5020304;28;20235;-51
2021/06/27 06:14:24;;;;;;;47.63;29.38;;;17.30;93.00;;;;;;5011383;28;20117;-53
2021/06/27 06:16:49;;;;;;;48.28;28.23;;;17.20;93.20;;;;;;5012047;28;20068;-48
2021/06/27 06:19:18;;;;;;;45.00;26.48;;;17.30;92.70;;;;;;5012006;28;20041;-50
2021/06/27 06:21:45;;;;;;;45.83;29.25;;;17.30;92.90;;;;;;5010617;28;20407;-49
2021/06/27 06:24:10;;;;;;;47.17;29.20;;;17.20;93.40;;;;;;5001231;28;20070;-52
2021/06/27 06:26:36;;;;;;;48.95;28.45;;;17.30;92.90;;;;;;5006658;28;20521;-48
2021/06/27 06:29:03;;;;;;;40.67;27.33;;;17.30;93.40;;;;;;5003773;28;20041;-49
2021/06/27 06:31:29;;;;;;;44.65;28.27;;;17.40;93.00;;;;;;5011530;28;20053;-49
2021/06/27 06:33:54;;;;;;;43.22;28.30;;;17.40;93.30;;;;;;4993992;28;20045;-52
2021/06/27 06:36:20;;;;;;;44.50;29.83;;;17.40;93.40;;;;;;5010398;28;20038;-48
2021/06/27 06:38:46;;;;;;;42.92;28.90;;;17.60;92.90;;;;;;5011158;28;20514;-50
2021/06/27 06:41:11;;;;;;;44.42;25.95;;;17.60;92.60;;;;;;5011434;28;20123;-51
2021/06/27 06:43:37;;;;;;;38.40;25.67;;;17.60;92.10;;;;;;5010907;28;20042;-51
2021/06/27 06:46:03;;;;;;;44.00;29.52;;;17.60;92.10;;;;;;5009141;28;20038;-51
2021/06/27 06:48:29;;;;;;;43.30;28.67;;;17.50;92.40;;;;;;5005687;28;20147;-52
2021/06/27 06:50:54;;;;;;;43.40;29.02;;;17.50;93.00;;;;;;5003974;28;20479;-53
2021/06/27 06:53:20;;;;;;;40.70;26.63;;;17.70;92.70;;;;;;5006827;28;20049;-52
2021/06/27 06:55:46;;;;;;;44.10;28.38;;;17.70;92.90;;;;;;5009888;28;20041;-53
2021/06/27 06:58:12;;;;;;;42.70;28.88;;;17.70;92.50;;;;;;5004521;28;20072;-51
2021/06/27 07:00:38;;;;;;;43.80;29.60;;;17.70;92.70;;;;;;5009817;28;20042;-51
2021/06/27 07:03:04;;;;;;;39.50;28.00;;;17.80;92.70;;;;;;5009613;28;20487;-51
2021/06/27 07:05:29;;;;;;;40.67;28.92;;;17.80;92.80;;;;;;5012417;28;20142;-53
2021/06/27 07:07:55;;;;;;;39.97;27.08;;;17.90;92.70;;;;;;5009114;28;20056;-51
2021/06/27 07:10:21;;;;;;;38.75;26.60;;;18.00;92.50;;;;;;5011509;28;20096;-48
2021/06/27 07:12:46;;;;;;;42.20;27.98;;;18.00;92.30;;;;;;5011023;28;20100;-51
2021/06/27 07:15:13;;;;;;;38.53;27.77;;;18.10;92.20;;;;;;5010224;28;20053;-49
2021/06/27 07:17:39;;;;;;;35.95;26.98;;;18.20;92.10;;;;;;5006285;28;20069;-53
2021/06/27 07:20:07;;;;;;;31.55;21.77;;;18.30;92.40;;;;;;4989633;28;20045;-50
2021/06/27 07:22:33;;;;;;;38.75;26.80;;;18.50;91.10;;;;;;5004498;28;20049;-49
2021/06/27 07:24:58;;;;;;;36.30;26.63;;;18.60;91.10;;;;;;5010294;28;20037;-50
2021/06/27 07:27:24;;;;;;;35.50;25.25;;;18.60;91.30;;;;;;5010370;28;20134;-49
2021/06/27 07:29:50;;;;;;;35.65;25.50;;;18.70;91.30;;;;;;5010675;28;20038;-50
2021/06/27 07:32:16;;;;;;;34.17;23.88;;;18.70;91.70;;;;;;5010806;28;20042;-49
2021/06/27 07:34:41;;;;;;;32.67;24.58;;;18.90;90.70;;;;;;5009707;28;20045;-52
2021/06/27 07:37:08;;;;;;;30.33;23.23;;;19.00;91.20;;;;;;5010688;28;20140;-51
2021/06/27 07:39:34;;;;;;;35.03;24.40;;;19.10;91.70;;;;;;5010387;28;20239;-52
2021/06/27 07:41:59;;;;;;;33.78;24.20;;;19.30;90.30;;;;;;5010374;28;20045;-51
2021/06/27 07:44:26;;;;;;;30.90;23.58;;;19.30;90.40;;;;;;5009515;28;20498;-50
2021/06/27 07:46:52;;;;;;;30.98;23.48;;;19.30;89.20;;;;;;5008915;28;20054;-51
2021/06/27 07:49:17;;;;;;;31.63;23.70;;;19.40;89.40;;;;;;4997423;28;20053;-51
2021/06/27 07:51:44;;;;;;;34.25;24.67;;;19.40;89.70;;;;;;4997876;28;20049;-49
2021/06/27 07:54:09;;;;;;;32.35;24.52;;;19.40;90.10;;;;;;4993938;28;20038;-52
2021/06/27 07:56:35;;;;;;;31.13;23.85;;;19.40;90.00;;;;;;5002947;28;20057;-50
2021/06/27 07:59:01;;;;;;;31.48;23.95;;;19.50;90.00;;;;;;5000095;28;20101;-50
2021/06/27 08:01:27;;;;;;;33.03;24.45;;;19.50;90.40;;;;;;5003732;28;20046;-51
2021/06/27 08:03:53;;;;;;;32.38;24.92;;;19.70;89.60;;;;;;5008086;28;20045;-52
2021/06/27 08:06:19;;;;;;;31.98;24.30;;;19.80;88.90;;;;;;4973347;28;20061;-52
2021/06/27 08:08:44;;;;;;;34.38;24.17;;;19.80;88.80;;;;;;5008454;28;20125;-49
2021/06/27 08:11:10;;;;;;;31.92;23.75;;;19.90;88.90;;;;;;5006956;28;20042;-52
2021/06/27 08:13:36;;;;;;;30.23;23.15;;;20.00;89.40;;;;;;5001441;28;20386;-50
2021/06/27 08:16:02;;;;;;;30.17;22.60;;;20.10;86.70;;;;;;5006232;28;20041;-51
2021/06/27 08:18:28;;;;;;;30.33;22.15;;;20.20;87.20;;;;;;5011218;28;20124;-51
2021/06/27 08:20:54;;;;;;;27.10;22.90;;;20.20;86.20;;;;;;5005905;28;20049;-49
2021/06/27 08:23:19;;;;;;;27.60;22.33;;;20.10;86.70;;;;;;5003331;28;20085;-51
2021/06/27 08:25:45;;;;;;;26.13;22.27;;;20.10;87.30;;;;;;4985136;28;20132;-51
2021/06/27 08:28:11;;;;;;;26.13;21.58;;;20.10;88.00;;;;;;5002198;28;20048;-51
2021/06/27 08:30:37;;;;;;;28.02;21.42;;;20.20;86.70;;;;;;5007352;28;20073;-49
2021/06/27 08:33:03;;;;;;;28.85;22.35;;;20.20;86.50;;;;;;5013066;28;20049;-52
2021/06/27 08:35:29;;;;;;;31.67;23.08;;;20.20;87.20;;;;;;5011500;28;20041;-51
2021/06/27 08:37:56;;;;;;;28.92;22.70;;;20.20;87.50;;;;;;5003813;28;20049;-51
2021/06/27 08:40:22;;;;;;;26.08;20.15;;;20.30;87.30;;;;;;5005801;28;20045;-50
2021/06/27 08:42:48;;;;;;;26.08;21.85;;;20.30;88.40;;;;;;5013335;28;20042;-52
2021/06/27 08:45:18;;;;;;;27.75;21.80;;;20.40;87.60;;;;;;5011672;28;20046;-48
2021/06/27 08:47:44;;;;;;;26.27;21.27;;;20.50;87.70;;;;;;5007443;28;20049;-53
2021/06/27 08:50:13;;;;;;;25.00;20.80;;;20.50;87.80;;;;;;5006963;28;20042;-51
2021/06/27 08:52:41;;;;;;;25.90;20.23;;;20.60;86.00;;;;;;5012359;28;20797;-50
2021/06/27 08:55:07;;;;;;;27.08;20.90;;;20.70;85.50;;;;;;5010578;28;20376;-51
2021/06/27 08:57:35;;;;;;;27.60;21.73;;;20.60;87.20;;;;;;5005481;28;20455;-50
2021/06/27 09:00:03;;;;;;;25.40;19.52;;;20.60;87.20;;;;;;5005229;28;20406;-51
2021/06/27 09:02:29;;;;;;;27.65;19.95;;;20.80;85.90;;;;;;5011300;28;20339;-51
2021/06/27 09:04:55;;;;;;;24.80;18.90;;;20.90;85.50;;;;;;5012980;28;20049;-48
2021/06/27 09:07:32;;;;;;;25.30;19.83;;;20.90;86.50;;;;;;5012457;28;20042;-52
2021/06/27 09:10:04;;;;;;;21.48;18.38;;;21.00;85.10;;;;;;5012228;28;20469;-52
2021/06/27 09:12:53;;;;;;;23.88;19.10;;;21.00;85.50;;;;;;5013051;28;20101;-51
2021/06/27 09:15:45;;;;;;;23.90;17.67;;;21.10;85.80;;;;;;5012508;28;20117;-52
2021/06/27 09:18:13;;;;;;;;;;;21.20;83.80;;;;;;5013442;28;20045;-52
2021/06/27 09:20:43;;;;;;;26.42;18.73;;;21.20;83.80;;;;;;5013233;28;19917;-51
2021/06/27 09:23:10;;;;;;;22.75;18.05;;;21.40;81.50;;;;;;5012399;28;20045;-51
2021/06/27 09:25:37;;;;;;;27.02;17.95;;;21.50;80.90;;;;;;5012093;28;20037;-49
2021/06/27 09:28:13;;;;;;;23.02;17.92;;;21.40;83.10;;;;;;5010854;28;20030;-51
2021/06/27 09:30:53;;;;;;;20.55;16.23;;;21.40;83.40;;;;;;5013070;28;20038;-52
2021/06/27 09:33:21;;;;;;;20.80;17.52;;;21.50;83.40;;;;;;5000801;28;20038;-52
2021/06/27 09:35:55;;;;;;;24.95;16.77;;;21.60;83.70;;;;;;5012092;28;20041;-52
2021/06/27 09:38:27;;;;;;;18.95;15.52;;;21.60;83.00;;;;;;5010179;28;20041;-51
2021/06/27 09:40:56;;;;;;;20.77;15.30;;;21.70;81.80;;;;;;5011588;28;20049;-53
2021/06/27 09:43:22;;;;;;;18.95;14.90;;;21.90;81.40;;;;;;5012469;28;20046;-52
2021/06/27 09:45:50;;;;;;;18.33;14.80;;;21.90;82.20;;;;;;5012232;28;20053;-52
2021/06/27 09:48:17;;;;;;;20.92;14.77;;;22.00;81.10;;;;;;4995141;28;20096;-51
2021/06/27 09:50:43;;;;;;;18.95;14.50;;;22.20;78.30;;;;;;5012520;28;20046;-49
2021/06/27 09:53:34;;;;;;;20.42;14.90;;;22.30;78.80;;;;;;5012528;28;20030;-52
2021/06/27 09:56:02;;;;;;;20.38;13.60;;;22.40;77.90;;;;;;5011305;28;20038;-49
2021/06/27 09:58:28;;;;;;;17.33;13.90;;;22.40;79.80;;;;;;5012582;28;20088;-53
2021/06/27 10:00:57;;;;;;;17.73;13.95;;;22.50;78.90;;;;;;5011953;28;20488;-52
2021/06/27 10:03:22;;;;;;;19.48;13.63;;;22.50;79.50;;;;;;5005975;28;20104;-53
2021/06/27 10:05:48;;;;;;;17.70;13.30;;;22.70;78.60;;;;;;5011084;28;20050;-51
2021/06/27 10:08:27;;;;;;;15.20;12.45;;;22.80;76.40;;;;;;5010581;28;20426;-53
2021/06/27 10:11:17;;;;;;;17.40;12.20;;;22.90;75.00;;;;;;5012202;28;20049;-52
2021/06/27 10:13:46;;;;;;;18.70;13.75;;;22.90;74.80;;;;;;5006776;28;20046;-53
2021/06/27 10:16:24;;;;;;;17.05;13.98;;;23.00;76.00;;;;;;5010527;28;20049;-54
2021/06/27 10:18:50;;;;;;;16.70;12.73;;;23.10;74.70;;;;;;5011651;28;20080;-54
2021/06/27 10:21:16;;;;;;;14.13;11.48;;;23.00;74.30;;;;;;5011885;28;20065;-54
2021/06/27 10:23:43;;;;;;;16.27;11.32;;;23.00;75.30;;;;;;5010777;28;20431;-54
2021/06/27 10:26:08;;;;;;;14.50;10.98;;;23.10;72.00;;;;;;5011663;28;20128;-52
2021/06/27 10:28:35;;;;;;;14.77;10.93;;;23.10;73.80;;;;;;5012361;28;20125;-54
2021/06/27 10:31:01;;;;;;;14.82;11.02;;;23.10;75.50;;;;;;5011505;28;20049;-54
2021/06/27 10:33:27;;;;;;;13.35;11.95;;;23.10;73.50;;;;;;5011597;28;20048;-51
2021/06/27 10:35:54;;;;;;;12.63;11.05;;;23.30;73.40;;;;;;5004666;28;20101;-52
2021/06/27 10:38:24;;;;;;;13.15;11.07;;;23.40;74.20;;;;;;5024336;28;20550;-53
2021/06/27 10:40:55;;;;;;;14.10;10.65;;;23.40;73.00;;;;;;5011483;28;20088;-53
2021/06/27 10:43:21;;;;;;;11.93;10.43;;;23.50;73.70;;;;;;5011955;28;20491;-54
2021/06/27 10:45:47;;;;;;;12.40;10.18;;;23.60;72.70;;;;;;5011041;28;20068;-53
2021/06/27 10:48:31;;;;;;;13.57;9.85;;;23.70;71.90;;;;;;5011619;28;20455;-53
2021/06/27 10:50:58;;;;;;;13.02;10.63;;;23.80;68.60;;;;;;5011706;28;20042;-53
2021/06/27 10:53:24;;;;;;;13.80;10.35;;;23.80;71.40;;;;;;4994405;28;20100;-53
2021/06/27 10:55:50;;;;;;;14.60;11.07;;;23.90;70.20;;;;;;4988535;28;20046;-54
2021/06/27 10:58:17;;;;;;;14.60;10.70;;;24.00;70.90;;;;;;5002317;28;20038;-52
2021/06/27 11:00:53;;;;;;;13.30;10.10;;;24.00;71.70;;;;;;5002943;28;20513;-50
2021/06/27 11:03:34;;;;;;;14.23;11.38;;;24.00;72.00;;;;;;4996308;28;20109;-53
2021/06/27 11:06:17;;;;;;;14.18;12.00;;;24.10;71.40;;;;;;4997430;28;20046;-54
2021/06/27 11:08:48;;;;;;;13.18;9.63;;;24.20;69.70;;;;;;5008136;28;20041;-54
2021/06/27 11:11:23;;;;;;;13.68;9.70;;;24.20;70.40;;;;;;5009853;28;20030;-53
2021/06/27 11:14:28;;;;;;;11.18;9.68;;;24.20;71.50;;;;;;5010472;28;20038;-53
2021/06/27 11:17:02;;;;;;;12.35;10.13;;;24.40;69.30;;;;;;4970109;28;20071;-53
2021/06/27 11:19:36;;;;;;;12.13;10.05;;;24.40;68.60;;;;;;4974294;28;20170;-52
2021/06/27 11:22:11;;;;;;;9.93;8.73;;;24.40;69.60;;;;;;4989824;28;20151;-53
2021/06/27 11:24:37;;;;;;;10.88;8.60;;;24.40;69.40;;;;;;5001225;28;20697;-53
2021/06/27 11:27:03;;;;;;;11.32;8.88;;;24.50;69.60;;;;;;5007558;28;20084;-53
2021/06/27 11:29:29;;;;;;;12.18;9.13;;;24.50;69.90;;;;;;5010259;28;20065;-50
2021/06/27 11:32:16;;;;;;;12.63;9.70;;;24.50;68.20;;;;;;5010790;28;20403;-50
2021/06/27 11:34:58;;;;;;;13.05;9.65;;;24.30;69.60;;;;;;5009080;28;20491;-52
2021/06/27 11:37:24;;;;;;;11.95;8.95;;;24.20;70.60;;;;;;4978023;28;20504;-51
2021/06/27 11:39:55;;;;;;;12.85;9.65;;;24.40;69.50;;;;;;5009537;28;20439;-54
2021/06/27 11:42:26;;;;;;;12.63;9.70;;;24.50;69.70;;;;;;5002007;28;20095;-54
2021/06/27 11:45:10;;;;;;;11.55;9.20;;;24.60;69.40;;;;;;5008682;28;20183;-54
2021/06/27 11:47:55;;;;;;;11.55;9.65;;;24.70;68.50;;;;;;5007967;28;20038;-54
2021/06/27 11:50:24;;;;;;;10.77;8.43;;;24.80;67.70;;;;;;5010035;28;20042;-51
2021/06/27 11:52:51;;;;;;;11.85;8.77;;;24.80;67.30;;;;;;5011118;28;20053;-54
2021/06/27 11:55:17;;;;;;;12.23;9.10;;;24.80;66.30;;;;;;5007893;28;20042;-53
2021/06/27 11:57:43;;;;;;;9.93;8.20;;;24.80;66.20;;;;;;5012381;28;20112;-53
2021/06/27 12:00:11;;;;;;;9.75;8.45;;;24.80;66.10;;;;;;5010583;28;20041;-51
2021/06/27 12:02:37;;;;;;;14.52;8.88;;;24.80;65.20;;;;;;4991129;28;20061;-54
2021/06/27 12:05:15;;;;;;;10.38;8.27;;;25.00;65.40;;;;;;5013653;28;20495;-54
2021/06/27 12:07:46;;;;;;;10.65;8.95;;;25.00;66.40;;;;;;4992746;28;20065;-53
2021/06/27 12:10:15;;;;;;;9.55;8.52;;;25.00;66.70;;;;;;5009773;28;20125;-52
2021/06/27 12:12:42;;;;;;;10.10;8.63;;;24.80;64.80;;;;;;5006219;28;20442;-55
2021/06/27 12:15:38;;;;;;;10.30;7.55;;;24.80;64.00;;;;;;5013401;28;20046;-51
2021/06/27 12:18:32;;;;;;;9.48;8.20;;;24.60;64.60;;;;;;4993892;28;20108;-54
2021/06/27 12:21:00;;;;;;;9.07;8.10;;;24.60;67.40;;;;;;5007913;28;20127;-51
2021/06/27 12:23:27;;;;;;;9.52;8.52;;;24.50;67.50;;;;;;5001899;28;20459;-53
2021/06/27 12:26:01;;;;;;;11.77;7.90;;;24.60;66.40;;;;;;5012267;28;20479;-53
2021/06/27 12:28:38;;;;;;;9.02;7.25;;;24.70;64.70;;;;;;5013816;28;20089;-52
2021/06/27 12:31:07;;;;;;;8.25;7.03;;;24.80;65.30;;;;;;5012461;28;20518;-52
2021/06/27 12:33:38;;;;;;;9.75;7.70;;;25.00;63.50;;;;;;5013118;28;20060;-52